Louiseville, Canada
Current Conditions -  °F | °C
As of 2:00 AM on Saturday 29 Nov 2014 (Local Time) from CYRQ Reporting Station
Overcast Overcast  
Wind Chill:   Ceiling: 5500
Heat Index:   Visibility: 9mi
Dew Point:   Wind: 0mph
Humidity: 85%   Direction: NA
Pressure: 30.2"   Gusts: NA
Location:  46.25°N, 72.93°W
Report Text: CYRQ 290700Z AUTO 00000KT 9SM OVC055 M13/M15 A3020 RMK SLP231
Loading
Personal Weather Stations






























Interactive Weather Map New forecast layout! Learn more

10-Day Weather Forecast

Advertisements
Track Severe Weather on mobile